Photometre #354[Standard_N] Mount_Chacaltaya AOT

File : 20210610_354.hum

10/06/2021,11:38:39,TEMP=-5.3,BA=5.64,STAT.A=Abs.,ExtBa=12.54
10/06/2021,11:41:38,TEMP=-5.0,BA=5.52,STAT.A=Abs.,ExtBa=12.48
10/06/2021,11:45:07,TEMP=-5.0,BA=5.52,STAT.A=Abs.,ExtBa=12.45
10/06/2021,11:49:17,TEMP=-4.9,BA=5.52,STAT.A=Abs.,ExtBa=12.45
10/06/2021,11:54:17,TEMP=-4.8,BA=5.56,STAT.A=Abs.,ExtBa=12.45
10/06/2021,12:00:29,TEMP=-4.6,BA=5.64,STAT.A=Abs.,ExtBa=12.47
10/06/2021,12:08:19,TEMP=-4.4,BA=5.64,STAT.B=Abs.,ExtBa=12.48
10/06/2021,12:12:04,TEMP=-4.2,BA=5.64,STAT.A=Abs.,ExtBa=12.45
10/06/2021,12:16:16,TEMP=-4.0,BA=5.64,STAT.A=Abs.,ExtBa=12.44
10/06/2021,12:21:01,TEMP=-3.8,BA=5.64,STAT.A=Abs.,ExtBa=12.45
10/06/2021,12:26:24,TEMP=-3.4,BA=5.64,STAT.A=Abs.,ExtBa=12.47
10/06/2021,12:32:36,TEMP=-3.1,BA=5.64,STAT.C=Abs.,ExtBa=12.51
10/06/2021,12:45:26,STAT.p
10/06/2021,12:48:18,TEMP=-2.5,BA=5.64,STAT.A=Abs.,ExtBa=12.63
10/06/2021,12:58:29,TEMP=-2.4,BA=5.64,STAT.A=Abs.,ExtBa=12.64
10/06/2021,13:10:59,TEMP=-1.5,BA=5.64,STAT.A=Abs.,ExtBa=12.92
10/06/2021,13:26:46,TEMP=0.0,BA=5.80,STAT.B=Abs.,ExtBa=13.59
10/06/2021,13:34:55,TEMP=0.8,BA=5.64,STAT.F,ExtBa=13.23
10/06/2021,13:47:11,TEMP=1.5,BA=5.64,STAT.D=Abs.,ExtBa=13.08
10/06/2021,14:02:11,TEMP=1.5,BA=5.80,STAT.D=Abs.,ExtBa=13.68
10/06/2021,14:17:11,TEMP=2.1,BA=5.84,STAT.D=Abs.,ExtBa=13.83
10/06/2021,14:32:13,TEMP=3.0,BA=5.80,STAT.F,ExtBa=13.77
10/06/2021,14:47:11,TEMP=3.5,BA=5.64,STAT.D=Abs.,ExtBa=13.72
10/06/2021,15:02:11,TEMP=3.8,BA=5.80,STAT.D=Abs.,ExtBa=13.94
10/06/2021,15:17:11,TEMP=3.4,BA=5.80,STAT.D=Abs.,ExtBa=14.07
10/06/2021,15:32:13,TEMP=3.9,BA=5.76,STAT.F,ExtBa=14.20
10/06/2021,15:47:12,TEMP=4.0,BA=5.64,STAT.D=Abs.,ExtBa=14.16
10/06/2021,16:02:12,TEMP=3.8,BA=5.76,STAT.D=Abs.,ExtBa=14.28
10/06/2021,16:17:12,TEMP=4.0,BA=5.72,STAT.D=Abs.,ExtBa=14.34
10/06/2021,16:32:14,TEMP=4.5,BA=5.72,STAT.F,ExtBa=14.38
10/06/2021,16:47:12,TEMP=4.6,BA=5.68,STAT.D=Abs.,ExtBa=14.31
10/06/2021,17:02:12,TEMP=4.6,BA=5.72,STAT.D=Abs.,ExtBa=14.40
10/06/2021,17:17:12,TEMP=4.6,BA=5.68,STAT.D=Abs.,ExtBa=14.39
10/06/2021,17:32:13,TEMP=5.0,BA=5.68,STAT.F,ExtBa=14.27
10/06/2021,17:55:44,TEMP=5.1,BA=5.64,STAT.D=Abs.,ExtBa=14.22
10/06/2021,18:10:31,TEMP=5.0,BA=5.64,STAT.D=Abs.,ExtBa=14.25
10/06/2021,18:25:19,TEMP=5.3,BA=5.64,STAT.D=Abs.,ExtBa=14.29
10/06/2021,18:32:13,TEMP=5.4,BA=5.68,STAT.F,ExtBa=14.36
10/06/2021,18:47:20,TEMP=5.7,BA=5.64,STAT.b=Abs.
10/06/2021,19:02:10,TEMP=5.9,BA=5.64,STAT.D=Abs.,ExtBa=14.32
10/06/2021,19:17:11,TEMP=6.0,BA=5.68,STAT.D=Abs.,ExtBa=14.31
10/06/2021,19:32:12,TEMP=5.6,BA=5.64,STAT.F,ExtBa=14.30
10/06/2021,19:43:52,TEMP=5.6,BA=5.64,STAT.B=Abs.,ExtBa=14.09
10/06/2021,19:53:25,TEMP=5.4,BA=5.64,STAT.A=Abs.,ExtBa=14.17
10/06/2021,20:05:55,TEMP=5.4,BA=5.68,STAT.A=Abs.,ExtBa=14.26
10/06/2021,20:16:06,TEMP=5.0,BA=5.64,STAT.A=Abs.,ExtBa=14.22
10/06/2021,20:24:36,TEMP=4.8,BA=5.64,STAT.A=Abs.,ExtBa=14.21
10/06/2021,20:31:48,TEMP=4.7,BA=5.64,STAT.C=Abs.,ExtBa=14.16
10/06/2021,20:44:21,TEMP=4.3,BA=5.64,STAT.A=Abs.,ExtBa=13.16
10/06/2021,20:47:22,TEMP=4.2,BA=5.64,STAT.A=Abs.,ExtBa=13.24
10/06/2021,20:50:23,TEMP=3.9,BA=5.64,STAT.A=Abs.,ExtBa=13.23
10/06/2021,20:53:24,TEMP=3.6,BA=5.64,STAT.A=Abs.,ExtBa=13.21
10/06/2021,20:56:27,TEMP=3.5,BA=5.64,STAT.B=Abs.,ExtBa=13.18
10/06/2021,21:04:24,TEMP=2.8,BA=5.64,STAT.A=Abs.,ExtBa=12.86
10/06/2021,21:10:06,TEMP=2.4,BA=5.64,STAT.A=Abs.,ExtBa=12.97
10/06/2021,21:15:07,TEMP=2.1,BA=5.64,STAT.A=Abs.,ExtBa=12.98
10/06/2021,21:19:16,TEMP=2.0,BA=5.64,STAT.A=Abs.,ExtBa=12.91
10/06/2021,21:22:44,TEMP=1.8,BA=5.64,STAT.A=Abs.,ExtBa=12.83
10/06/2021,21:25:45,TEMP=1.7,BA=5.64,STAT.A=Abs.,ExtBa=12.76